Time;durP1;ratioP1;P1;durP2;ratioP2;P2;SDS_P1;SDS_P2;PMS_P1;PMS_P2;Temp;Humidity;BMP_temperature;BMP_pressure;BME280_temperature;BME280_humidity;BME280_pressure;Samples;Min_cycle;Max_cycle;Signal;HPM_P1;HPM_P2
2023/12/15 00:00:54;;;;;;;16.67;5.20;;;4.80;99.90;;;;;;5109042;27;20628;-68
2023/12/15 00:03:22;;;;;;;15.90;6.30;;;4.80;99.90;;;;;;5093418;28;20944;-69
2023/12/15 00:05:51;;;;;;;16.23;6.63;;;4.80;99.90;;;;;;5086314;28;20558;-70
2023/12/15 00:08:19;;;;;;;14.87;5.10;;;4.80;99.90;;;;;;5087156;28;20456;-70
2023/12/15 00:10:49;;;;;;;15.60;5.83;;;4.80;99.90;;;;;;5086973;28;21033;-71
2023/12/15 00:13:17;;;;;;;14.03;5.90;;;4.80;99.90;;;;;;5086748;28;20452;-70
2023/12/15 00:15:45;;;;;;;13.80;5.87;;;4.80;99.90;;;;;;5085960;28;20481;-70
2023/12/15 00:18:13;;;;;;;15.70;5.73;;;4.80;99.90;;;;;;5085772;28;20454;-69
2023/12/15 00:20:41;;;;;;;15.93;6.37;;;4.80;99.90;;;;;;5088367;28;20450;-70
2023/12/15 00:23:11;;;;;;;19.30;6.00;;;4.70;99.90;;;;;;5086434;28;20462;-71
2023/12/15 00:25:39;;;;;;;15.53;5.67;;;4.70;99.90;;;;;;5086176;28;20462;-70
2023/12/15 00:28:06;;;;;;;16.87;6.60;;;4.60;99.90;;;;;;5086737;28;20448;-71
2023/12/15 00:30:34;;;;;;;18.00;6.80;;;4.60;99.90;;;;;;5086989;28;20449;-71
2023/12/15 00:33:05;;;;;;;15.47;6.83;;;4.60;99.90;;;;;;5086230;28;20532;-69
2023/12/15 00:35:33;;;;;;;19.40;7.40;;;4.50;99.90;;;;;;5085357;28;20490;-70
2023/12/15 00:38:01;;;;;;;18.10;7.40;;;4.50;99.90;;;;;;5085861;28;20974;-71
2023/12/15 00:40:31;;;;;;;16.40;6.10;;;4.50;99.90;;;;;;5090438;27;20442;-69
2023/12/15 00:42:58;;;;;;;15.63;5.97;;;4.60;99.90;;;;;;5102271;27;21216;-70
2023/12/15 00:45:27;;;;;;;18.50;6.73;;;4.60;99.90;;;;;;5100349;27;20458;-69
2023/12/15 00:47:55;;;;;;;18.97;7.63;;;4.50;99.90;;;;;;5086558;28;21017;-70
2023/12/15 00:50:22;;;;;;;18.20;7.13;;;4.50;99.90;;;;;;5084753;27;20458;-69
2023/12/15 00:52:50;;;;;;;17.27;7.10;;;4.50;99.90;;;;;;5110189;27;20441;-72
2023/12/15 00:55:18;;;;;;;15.77;5.80;;;4.50;99.90;;;;;;5099383;27;20571;-70
2023/12/15 00:57:48;;;;;;;20.27;6.80;;;4.50;99.90;;;;;;5099941;28;20478;-70
2023/12/15 01:00:17;;;;;;;18.13;6.60;;;4.50;99.90;;;;;;5086958;28;20460;-71
2023/12/15 01:02:45;;;;;;;19.23;6.60;;;4.50;99.90;;;;;;5086381;28;20453;-71
2023/12/15 01:05:13;;;;;;;18.60;6.27;;;4.40;99.90;;;;;;5085954;28;20472;-70
2023/12/15 01:07:41;;;;;;;17.33;6.60;;;4.40;99.90;;;;;;5087138;28;20847;-70
2023/12/15 01:10:09;;;;;;;17.50;6.13;;;4.40;99.90;;;;;;5086780;28;20542;-70
2023/12/15 01:12:42;;;;;;;16.07;6.07;;;4.40;99.90;;;;;;5086570;28;20454;-71
2023/12/15 01:15:12;;;;;;;15.40;5.43;;;4.40;99.90;;;;;;5086145;28;20482;-72
2023/12/15 01:17:40;;;;;;;20.00;6.57;;;4.40;99.90;;;;;;5086059;28;20909;-71
2023/12/15 01:20:16;;;;;;;14.47;5.70;;;4.50;99.90;;;;;;5085642;28;20474;-72
2023/12/15 01:22:44;;;;;;;21.43;7.40;;;4.50;99.90;;;;;;5084999;28;20493;-71
2023/12/15 01:25:12;;;;;;;17.90;7.53;;;4.40;99.90;;;;;;5084979;28;20462;-71
2023/12/15 01:27:40;;;;;;;18.33;6.50;;;4.40;99.90;;;;;;5085191;28;20482;-70
2023/12/15 01:30:09;;;;;;;15.47;6.73;;;4.50;99.90;;;;;;5085179;28;20475;-70
2023/12/15 01:32:38;;;;;;;15.93;6.07;;;4.50;99.90;;;;;;5084661;28;20557;-69
2023/12/15 01:35:07;;;;;;;15.43;6.23;;;4.50;99.90;;;;;;5084101;28;20573;-71
2023/12/15 01:37:35;;;;;;;16.17;6.70;;;4.50;99.90;;;;;;5085243;28;20461;-71
2023/12/15 01:40:04;;;;;;;13.60;4.90;;;4.50;99.90;;;;;;5084838;28;21065;-70
2023/12/15 01:42:32;;;;;;;17.03;7.10;;;4.40;99.90;;;;;;5084865;28;20941;-71
2023/12/15 01:45:00;;;;;;;20.60;7.87;;;4.40;99.90;;;;;;5083859;28;20814;-70
2023/12/15 01:47:28;;;;;;;14.73;5.90;;;4.40;99.90;;;;;;5086287;28;20972;-69
2023/12/15 01:50:01;;;;;;;18.97;7.00;;;4.40;99.90;;;;;;5086031;28;20453;-71
2023/12/15 01:52:29;;;;;;;17.40;6.67;;;4.40;99.90;;;;;;5086697;28;20462;-71
2023/12/15 01:54:57;;;;;;;17.70;6.43;;;4.40;99.90;;;;;;5086160;28;20533;-71
2023/12/15 01:57:27;;;;;;;20.47;6.83;;;4.50;99.90;;;;;;5079540;28;20461;-70
2023/12/15 01:59:55;;;;;;;23.27;8.13;;;4.50;99.90;;;;;;5085109;28;20495;-70
2023/12/15 02:02:23;;;;;;;21.17;7.47;;;4.50;99.90;;;;;;5085488;28;20446;-69
2023/12/15 02:04:51;;;;;;;19.33;6.50;;;4.40;99.90;;;;;;5083957;28;20472;-72
2023/12/15 02:07:20;;;;;;;17.97;7.03;;;4.40;99.90;;;;;;5084979;28;20449;-71
2023/12/15 02:09:48;;;;;;;17.37;6.60;;;4.40;99.90;;;;;;5093608;28;20465;-71
2023/12/15 02:12:18;;;;;;;16.40;6.43;;;4.40;99.90;;;;;;5090274;28;21034;-71
2023/12/15 02:14:46;;;;;;;16.73;6.97;;;4.40;99.90;;;;;;5089315;28;20466;-71
2023/12/15 02:17:14;;;;;;;17.53;6.90;;;4.40;99.90;;;;;;5084901;28;21440;-71
2023/12/15 02:19:42;;;;;;;16.93;6.03;;;4.40;99.90;;;;;;5084723;28;20457;-71
2023/12/15 02:22:10;;;;;;;14.70;5.70;;;4.40;99.90;;;;;;5083474;28;20566;-72
2023/12/15 02:24:40;;;;;;;15.57;5.67;;;4.30;99.90;;;;;;5084682;28;20458;-71
2023/12/15 02:27:08;;;;;;;17.60;7.30;;;4.20;99.90;;;;;;5084236;28;20455;-72
2023/12/15 02:29:36;;;;;;;17.27;7.10;;;4.10;99.90;;;;;;5084726;28;20458;-73
2023/12/15 02:32:04;;;;;;;16.70;6.43;;;4.00;99.90;;;;;;5084052;28;20530;-71
2023/12/15 02:34:32;;;;;;;16.83;6.47;;;4.00;99.90;;;;;;5083374;28;20466;-71
2023/12/15 02:37:00;;;;;;;19.80;7.27;;;3.90;99.90;;;;;;5084177;28;20547;-71
2023/12/15 02:39:28;;;;;;;18.60;8.20;;;3.80;99.90;;;;;;5084293;28;20501;-71
2023/12/15 02:42:00;;;;;;;16.20;6.37;;;3.70;99.90;;;;;;5093615;28;20887;-71
2023/12/15 02:44:31;;;;;;;20.17;7.13;;;3.70;99.90;;;;;;5102932;28;20456;-71
2023/12/15 02:46:59;;;;;;;18.03;7.23;;;3.60;99.90;;;;;;5105736;28;20478;-72
2023/12/15 02:49:27;;;;;;;17.80;7.37;;;3.60;99.90;;;;;;5084276;28;20442;-72
2023/12/15 02:51:55;;;;;;;16.27;6.50;;;3.40;99.90;;;;;;5084236;28;20450;-71
2023/12/15 02:54:23;;;;;;;19.13;8.37;;;3.50;99.90;;;;;;5082435;28;20497;-71
2023/12/15 02:57:01;;;;;;;17.10;6.43;;;3.70;99.90;;;;;;5084750;28;20547;-71
2023/12/15 02:59:29;;;;;;;19.97;7.60;;;3.70;99.90;;;;;;5097885;28;20467;-71
2023/12/15 03:01:57;;;;;;;19.30;6.90;;;3.80;99.90;;;;;;5103513;28;20460;-71
2023/12/15 03:04:25;;;;;;;16.93;6.50;;;3.80;99.90;;;;;;5103632;28;20546;-70
2023/12/15 03:06:54;;;;;;;17.67;7.40;;;3.90;99.90;;;;;;5099237;28;20452;-69
2023/12/15 03:09:28;;;;;;;15.13;6.17;;;3.90;99.90;;;;;;5104693;28;20441;-71
2023/12/15 03:11:55;;;;;;;19.07;7.23;;;3.90;99.90;;;;;;5104514;28;20449;-71
2023/12/15 03:14:25;;;;;;;16.90;7.20;;;4.00;99.90;;;;;;5103918;28;21019;-70
2023/12/15 03:16:52;;;;;;;19.30;6.90;;;4.00;99.90;;;;;;5104307;28;20493;-70
2023/12/15 03:19:20;;;;;;;18.00;6.87;;;4.00;99.90;;;;;;5104539;28;20495;-70
2023/12/15 03:21:48;;;;;;;16.40;7.53;;;4.00;99.90;;;;;;5104549;28;20469;-70
2023/12/15 03:24:18;;;;;;;18.03;7.87;;;4.00;99.90;;;;;;5099092;28;20470;-68
2023/12/15 03:26:46;;;;;;;17.20;7.77;;;4.10;99.90;;;;;;5083420;28;20446;-70
2023/12/15 03:29:14;;;;;;;20.03;6.93;;;4.10;99.90;;;;;;5084865;28;20535;-70
2023/12/15 03:31:44;;;;;;;15.50;6.80;;;4.10;99.90;;;;;;5085197;28;20448;-70
2023/12/15 03:34:12;;;;;;;17.67;6.83;;;4.10;99.90;;;;;;5084081;28;20591;-71
2023/12/15 03:36:40;;;;;;;15.70;5.60;;;4.10;99.90;;;;;;5084528;28;20988;-71
2023/12/15 03:39:09;;;;;;;16.90;7.30;;;4.20;99.90;;;;;;5084386;28;20989;-71
2023/12/15 03:41:37;;;;;;;15.23;6.30;;;4.20;99.90;;;;;;5085322;28;20501;-71
2023/12/15 03:44:05;;;;;;;15.33;6.80;;;4.20;99.90;;;;;;5084123;28;20478;-69
2023/12/15 03:46:33;;;;;;;15.57;6.93;;;4.20;99.90;;;;;;5083718;28;20496;-70
2023/12/15 03:49:02;;;;;;;17.17;6.60;;;4.20;99.90;;;;;;5083387;28;20944;-69
2023/12/15 03:51:30;;;;;;;18.93;7.20;;;4.20;99.90;;;;;;5082972;28;20494;-70
2023/12/15 03:54:01;;;;;;;15.97;7.07;;;4.20;99.90;;;;;;5082680;28;20858;-70
2023/12/15 03:56:29;;;;;;;14.90;6.30;;;4.30;99.90;;;;;;5082779;28;20487;-70
2023/12/15 03:58:57;;;;;;;15.47;6.50;;;4.30;99.90;;;;;;5083948;28;20442;-70
2023/12/15 04:01:25;;;;;;;15.47;7.03;;;4.30;99.90;;;;;;5087078;28;20470;-70
2023/12/15 04:03:53;;;;;;;15.97;8.00;;;4.30;99.90;;;;;;5086252;28;20466;-71
2023/12/15 04:06:22;;;;;;;13.20;5.60;;;4.40;99.90;;;;;;5086252;28;20986;-71
2023/12/15 04:08:50;;;;;;;15.70;6.27;;;4.40;99.90;;;;;;5086864;28;20519;-71
2023/12/15 04:11:18;;;;;;;15.47;6.20;;;4.40;99.90;;;;;;5086724;28;20466;-70
2023/12/15 04:13:47;;;;;;;16.40;5.57;;;4.40;99.90;;;;;;5084747;28;20466;-69
2023/12/15 04:16:15;;;;;;;15.60;6.27;;;4.40;99.90;;;;;;5081536;28;20991;-70
2023/12/15 04:18:43;;;;;;;15.60;5.80;;;4.40;99.90;;;;;;5087637;28;20498;-71
2023/12/15 04:21:11;;;;;;;17.20;7.00;;;4.40;99.90;;;;;;5087583;28;20986;-71
2023/12/15 04:23:40;;;;;;;15.03;6.67;;;4.50;99.90;;;;;;5087472;28;20446;-70
2023/12/15 04:26:08;;;;;;;16.80;5.97;;;4.50;99.90;;;;;;5087285;28;20878;-71
2023/12/15 04:28:36;;;;;;;13.17;7.00;;;4.50;99.90;;;;;;5087983;28;20446;-70
2023/12/15 04:31:04;;;;;;;13.87;6.40;;;4.50;99.90;;;;;;5087885;28;20492;-71
2023/12/15 04:33:32;;;;;;;12.70;5.63;;;4.50;99.90;;;;;;5087300;28;21078;-70
2023/12/15 04:36:01;;;;;;;15.87;6.37;;;4.50;99.90;;;;;;5087034;28;20546;-71
2023/12/15 04:38:28;;;;;;;14.37;5.80;;;4.50;99.90;;;;;;5087508;28;20669;-71
2023/12/15 04:40:58;;;;;;;13.93;5.70;;;4.50;99.90;;;;;;5089249;28;20496;-70
2023/12/15 04:43:26;;;;;;;13.87;5.50;;;4.60;99.90;;;;;;5088384;28;20449;-69
2023/12/15 04:45:55;;;;;;;12.17;5.00;;;4.60;99.90;;;;;;5086785;28;20967;-71
2023/12/15 04:48:23;;;;;;;14.33;5.93;;;4.50;99.90;;;;;;5098969;28;20430;-71
2023/12/15 04:50:52;;;;;;;13.60;5.70;;;4.60;99.90;;;;;;5106823;28;20530;-68
2023/12/15 04:53:20;;;;;;;15.37;5.70;;;4.60;99.90;;;;;;5106523;28;20434;-72
2023/12/15 04:55:48;;;;;;;13.77;5.77;;;4.60;99.90;;;;;;5105732;27;20461;-71
2023/12/15 04:58:19;;;;;;;16.13;6.07;;;4.50;99.90;;;;;;5106455;28;21026;-71
2023/12/15 05:00:47;;;;;;;14.50;6.70;;;4.50;99.90;;;;;;5106863;28;20546;-70
2023/12/15 05:03:15;;;;;;;14.30;6.80;;;4.50;99.90;;;;;;5105652;28;20447;-71
2023/12/15 05:05:46;;;;;;;12.40;5.23;;;4.60;99.90;;;;;;5105599;28;20463;-71
2023/12/15 05:08:14;;;;;;;14.10;6.00;;;4.60;99.90;;;;;;5104101;28;21107;-72
2023/12/15 05:10:42;;;;;;;14.63;6.33;;;4.60;99.90;;;;;;5100302;28;20474;-69
2023/12/15 05:13:10;;;;;;;15.00;7.17;;;4.60;99.90;;;;;;5105851;28;20586;-71
2023/12/15 05:15:39;;;;;;;16.40;5.43;;;4.70;99.90;;;;;;5105113;28;20554;-70
2023/12/15 05:18:07;;;;;;;12.40;5.67;;;4.70;99.90;;;;;;5101299;27;20482;-69
2023/12/15 05:20:38;;;;;;;12.27;4.53;;;4.60;99.90;;;;;;5121872;27;20447;-70
2023/12/15 05:23:06;;;;;;;13.20;6.27;;;4.60;99.90;;;;;;5119398;27;20466;-71
2023/12/15 05:25:41;;;;;;;14.30;5.70;;;4.60;99.90;;;;;;5114392;27;20488;-70
2023/12/15 05:28:09;;;;;;;12.77;5.17;;;4.70;99.90;;;;;;5085489;28;20445;-72
2023/12/15 05:30:46;;;;;;;11.20;4.47;;;4.70;99.90;;;;;;5091335;28;21047;-69
2023/12/15 05:33:16;;;;;;;15.27;5.77;;;4.70;99.90;;;;;;5085700;28;20453;-70
2023/12/15 05:35:44;;;;;;;12.60;5.40;;;4.70;99.90;;;;;;5088574;28;20492;-71
2023/12/15 05:38:12;;;;;;;11.63;5.70;;;4.70;99.90;;;;;;5085073;28;20491;-71
2023/12/15 05:40:41;;;;;;;12.10;4.97;;;4.70;99.90;;;;;;5085530;28;20530;-70
2023/12/15 05:43:09;;;;;;;13.87;5.50;;;4.80;99.90;;;;;;5085050;28;20462;-71
2023/12/15 05:45:37;;;;;;;12.47;5.33;;;4.80;99.90;;;;;;5084261;28;20546;-69
2023/12/15 05:48:06;;;;;;;12.40;5.13;;;4.70;99.90;;;;;;5085490;28;20453;-70
2023/12/15 05:50:35;;;;;;;12.80;5.63;;;4.70;99.90;;;;;;5086444;28;20456;-70
2023/12/15 05:53:04;;;;;;;13.00;5.43;;;4.70;99.90;;;;;;5085131;28;20888;-71
2023/12/15 05:55:32;;;;;;;12.43;5.43;;;4.70;99.90;;;;;;5085447;28;20557;-70
2023/12/15 05:58:00;;;;;;;13.90;5.30;;;4.80;99.90;;;;;;5085253;28;20557;-71
2023/12/15 06:00:28;;;;;;;12.27;5.07;;;4.80;99.90;;;;;;5087987;27;20436;-70
2023/12/15 06:02:56;;;;;;;13.00;5.70;;;4.70;99.90;;;;;;5118040;27;20480;-72
2023/12/15 06:05:28;;;;;;;14.50;5.80;;;4.70;99.90;;;;;;5100217;27;21011;-69
2023/12/15 06:07:56;;;;;;;12.73;6.17;;;4.70;99.90;;;;;;5084624;28;20460;-70
2023/12/15 06:10:23;;;;;;;11.43;5.00;;;4.70;99.90;;;;;;5085008;28;20446;-71
2023/12/15 06:12:59;;;;;;;14.27;5.60;;;4.90;99.90;;;;;;5084239;28;20503;-69
2023/12/15 06:15:27;;;;;;;12.40;4.97;;;4.80;99.90;;;;;;5096768;28;20461;-70
2023/12/15 06:17:55;;;;;;;12.10;5.93;;;4.80;99.90;;;;;;5105064;28;20479;-70
2023/12/15 06:20:24;;;;;;;12.77;5.73;;;4.70;99.90;;;;;;5116930;27;20532;-71
2023/12/15 06:22:53;;;;;;;13.30;5.10;;;4.60;99.90;;;;;;5108124;27;20572;-69
2023/12/15 06:25:22;;;;;;;12.77;5.87;;;4.60;99.90;;;;;;5084070;28;20992;-71
2023/12/15 06:27:51;;;;;;;13.87;5.60;;;4.70;99.90;;;;;;5085565;28;20454;-71
2023/12/15 06:30:19;;;;;;;11.83;5.27;;;4.80;99.90;;;;;;5085945;28;20528;-71
2023/12/15 06:32:47;;;;;;;14.20;6.63;;;4.90;99.90;;;;;;5102514;27;20458;-71
2023/12/15 06:35:16;;;;;;;15.63;6.10;;;4.80;99.90;;;;;;5118814;27;20493;-70
2023/12/15 06:37:45;;;;;;;13.90;5.13;;;4.90;99.90;;;;;;5099412;27;20553;-70
2023/12/15 06:40:14;;;;;;;14.33;7.40;;;4.90;99.90;;;;;;5112214;27;20448;-71
2023/12/15 06:42:42;;;;;;;12.67;6.30;;;4.90;99.90;;;;;;5084759;28;20450;-70
2023/12/15 06:45:10;;;;;;;13.97;6.30;;;4.90;99.90;;;;;;5084420;28;20546;-70
2023/12/15 06:47:38;;;;;;;15.23;6.07;;;5.00;99.90;;;;;;5084465;28;20980;-70
2023/12/15 06:50:08;;;;;;;13.30;5.93;;;5.10;99.90;;;;;;5084208;28;20466;-72
2023/12/15 06:52:36;;;;;;;14.70;6.17;;;5.10;99.90;;;;;;5083946;28;20454;-71
2023/12/15 06:55:05;;;;;;;14.40;5.80;;;5.10;99.90;;;;;;5083491;28;20528;-70
2023/12/15 06:57:34;;;;;;;13.90;6.07;;;5.00;99.90;;;;;;5084298;28;20559;-69
2023/12/15 07:00:05;;;;;;;15.00;5.80;;;5.10;99.90;;;;;;5084014;28;20452;-71
2023/12/15 07:02:33;;;;;;;15.40;6.40;;;5.10;99.90;;;;;;5091823;28;20506;-69
2023/12/15 07:05:01;;;;;;;13.83;6.87;;;5.10;99.90;;;;;;5083369;28;20478;-70
2023/12/15 07:07:29;;;;;;;14.10;6.00;;;5.20;99.90;;;;;;5080833;28;21127;-70
2023/12/15 07:09:57;;;;;;;17.20;8.83;;;5.20;99.90;;;;;;5083138;28;20447;-69
2023/12/15 07:12:24;;;;;;;15.50;7.83;;;5.10;99.90;;;;;;5095670;28;20545;-70
2023/12/15 07:14:54;;;;;;;13.87;7.00;;;5.20;99.90;;;;;;5081347;28;20471;-67
2023/12/15 07:17:22;;;;;;;14.03;6.33;;;5.20;99.90;;;;;;5098537;28;20539;-68
2023/12/15 07:19:50;;;;;;;15.50;7.43;;;5.20;99.90;;;;;;5083770;28;20480;-68
2023/12/15 07:22:17;;;;;;;15.03;6.70;;;5.20;99.90;;;;;;5097680;28;20515;-69
2023/12/15 07:24:47;;;;;;;13.87;6.90;;;5.30;99.90;;;;;;5083008;28;20570;-68
2023/12/15 07:27:23;;;;;;;14.47;6.47;;;5.30;99.90;;;;;;5096981;28;20450;-69
2023/12/15 07:29:52;;;;;;;13.67;6.47;;;5.20;99.90;;;;;;5084381;28;20443;-70
2023/12/15 07:32:26;;;;;;;13.90;6.63;;;5.20;99.90;;;;;;5083980;28;20873;-70
2023/12/15 07:34:55;;;;;;;14.23;6.27;;;5.20;99.90;;;;;;5087353;28;20471;-70
2023/12/15 07:37:23;;;;;;;15.23;6.30;;;5.10;99.90;;;;;;5087793;28;20439;-70
2023/12/15 07:39:51;;;;;;;18.27;7.10;;;5.10;99.90;;;;;;5087695;28;20982;-71
2023/12/15 07:42:19;;;;;;;14.80;7.03;;;5.20;99.90;;;;;;5087271;28;20506;-70
2023/12/15 07:44:47;;;;;;;15.50;6.77;;;5.30;99.90;;;;;;5087359;28;20468;-71
2023/12/15 07:47:15;;;;;;;13.50;6.70;;;5.30;99.90;;;;;;5087920;28;20453;-71
2023/12/15 07:49:44;;;;;;;13.13;6.27;;;5.30;99.90;;;;;;5087872;28;20440;-72
2023/12/15 07:52:12;;;;;;;16.07;7.23;;;5.40;99.90;;;;;;5087558;28;20443;-70
2023/12/15 07:54:41;;;;;;;13.33;6.73;;;5.40;99.90;;;;;;5087189;28;20467;-71
2023/12/15 07:57:09;;;;;;;15.80;7.20;;;5.50;99.90;;;;;;5087932;28;20470;-72
2023/12/15 07:59:41;;;;;;;14.23;7.13;;;5.50;99.90;;;;;;5087806;28;20909;-72
2023/12/15 08:02:09;;;;;;;15.77;7.23;;;5.50;99.90;;;;;;5087492;28;20555;-73
2023/12/15 08:04:37;;;;;;;12.50;5.80;;;5.50;99.90;;;;;;5087156;28;20984;-70
2023/12/15 08:07:07;;;;;;;15.70;7.13;;;5.50;99.90;;;;;;5087785;28;20493;-71
2023/12/15 08:09:35;;;;;;;13.63;7.07;;;5.50;99.90;;;;;;5087412;28;20451;-69
2023/12/15 08:12:03;;;;;;;16.93;7.60;;;5.50;99.90;;;;;;5086606;28;20451;-71
2023/12/15 08:14:31;;;;;;;16.30;7.20;;;5.40;99.90;;;;;;5086401;28;20463;-71
2023/12/15 08:16:59;;;;;;;17.30;7.30;;;5.40;99.90;;;;;;5087328;28;20444;-72
2023/12/15 08:19:29;;;;;;;14.77;8.03;;;5.40;99.90;;;;;;5099085;28;20490;-71
2023/12/15 08:22:00;;;;;;;16.50;8.67;;;5.40;99.90;;;;;;5107635;28;20526;-71
2023/12/15 08:24:29;;;;;;;14.97;8.17;;;5.40;99.90;;;;;;5106777;28;20461;-71
2023/12/15 08:26:58;;;;;;;15.40;7.03;;;5.50;99.90;;;;;;5106982;28;20893;-71
2023/12/15 08:29:25;;;;;;;13.63;6.67;;;5.60;99.90;;;;;;5108301;28;20441;-73
2023/12/15 08:31:53;;;;;;;15.50;6.47;;;5.60;99.90;;;;;;5107601;28;20444;-70
2023/12/15 08:34:23;;;;;;;16.00;7.87;;;5.60;99.90;;;;;;5105928;28;21009;-70
2023/12/15 08:36:51;;;;;;;16.73;6.70;;;5.60;99.90;;;;;;5107507;28;20922;-71
2023/12/15 08:39:19;;;;;;;13.40;6.60;;;5.60;99.90;;;;;;5106781;28;20485;-70
2023/12/15 08:41:49;;;;;;;23.03;7.73;;;5.60;99.90;;;;;;5106958;28;20530;-72
2023/12/15 08:44:17;;;;;;;15.20;6.93;;;5.50;99.90;;;;;;5109718;28;21028;-71
2023/12/15 08:46:58;;;;;;;15.43;6.60;;;5.50;99.90;;;;;;5111238;28;20535;-71
2023/12/15 08:49:27;;;;;;;19.30;6.77;;;5.60;99.90;;;;;;5111056;28;20494;-70
2023/12/15 08:51:56;;;;;;;14.13;7.20;;;5.70;99.90;;;;;;5110575;28;20528;-70
2023/12/15 08:54:24;;;;;;;13.17;6.33;;;5.80;99.90;;;;;;5088816;28;20512;-71
2023/12/15 08:56:53;;;;;;;16.43;8.13;;;5.80;99.90;;;;;;5087297;28;20446;-70
2023/12/15 08:59:21;;;;;;;15.00;6.60;;;5.80;99.90;;;;;;5085342;28;20484;-71
2023/12/15 09:01:49;;;;;;;12.63;5.47;;;5.80;99.90;;;;;;5086260;28;20970;-70
2023/12/15 09:04:21;;;;;;;13.07;5.60;;;5.80;99.90;;;;;;5085516;28;20530;-70
2023/12/15 09:06:49;;;;;;;12.50;5.63;;;5.90;99.90;;;;;;5085971;28;20511;-70
2023/12/15 09:09:26;;;;;;;15.17;6.27;;;6.00;99.90;;;;;;5086229;28;20884;-72
2023/12/15 09:11:55;;;;;;;12.57;5.33;;;6.10;99.90;;;;;;5086477;28;20445;-71
2023/12/15 09:14:28;;;;;;;14.73;6.33;;;6.10;99.90;;;;;;5084624;28;21092;-71
2023/12/15 09:16:56;;;;;;;14.90;6.23;;;6.20;99.90;;;;;;5086332;28;20850;-71
2023/12/15 09:19:26;;;;;;;14.07;5.93;;;6.10;99.90;;;;;;5085938;28;20502;-71
2023/12/15 09:21:54;;;;;;;12.63;6.13;;;6.30;99.90;;;;;;5086223;28;20446;-71
2023/12/15 09:24:22;;;;;;;13.73;6.13;;;6.30;99.90;;;;;;5084833;28;20458;-70
2023/12/15 09:26:50;;;;;;;13.70;6.00;;;6.30;99.90;;;;;;5085952;28;21123;-72
2023/12/15 09:29:19;;;;;;;13.73;6.40;;;6.50;99.90;;;;;;5086048;28;20439;-71
2023/12/15 09:31:47;;;;;;;13.17;6.00;;;6.60;99.90;;;;;;5084525;28;20479;-72
2023/12/15 09:34:17;;;;;;;11.97;5.93;;;6.60;99.90;;;;;;5085880;28;20499;-69
2023/12/15 09:36:46;;;;;;;12.50;5.73;;;6.70;99.90;;;;;;5086103;28;21146;-69
2023/12/15 09:39:14;;;;;;;13.97;6.23;;;6.80;99.90;;;;;;5086364;28;20985;-70
2023/12/15 09:41:42;;;;;;;12.23;5.63;;;6.80;99.90;;;;;;5086742;28;20454;-70
2023/12/15 09:44:10;;;;;;;12.00;5.67;;;6.80;99.90;;;;;;5093668;28;20471;-69
2023/12/15 09:46:43;;;;;;;12.97;5.70;;;6.80;99.90;;;;;;5086895;28;20468;-68
2023/12/15 09:49:15;;;;;;;14.00;5.57;;;6.80;99.90;;;;;;5084059;28;20449;-69
2023/12/15 09:51:49;;;;;;;15.83;5.97;;;6.80;99.90;;;;;;5085025;28;20442;-69
2023/12/15 09:54:17;;;;;;;14.80;6.30;;;6.80;99.90;;;;;;5084724;28;20458;-70
2023/12/15 09:56:46;;;;;;;10.30;5.60;;;6.90;99.90;;;;;;5085820;28;20549;-71
2023/12/15 09:59:14;;;;;;;14.23;6.73;;;7.00;99.90;;;;;;5085311;28;20462;-70
2023/12/15 10:01:43;;;;;;;13.40;6.00;;;7.10;99.90;;;;;;5088319;28;20438;-67
2023/12/15 10:04:11;;;;;;;13.23;6.30;;;7.10;99.90;;;;;;5093485;28;20496;-70
2023/12/15 10:06:39;;;;;;;13.17;6.87;;;7.20;99.90;;;;;;5089424;28;20546;-69
2023/12/15 10:09:12;;;;;;;15.83;6.20;;;7.30;99.90;;;;;;5090668;28;20939;-69
2023/12/15 10:11:44;;;;;;;11.63;6.00;;;7.40;99.90;;;;;;5092283;28;20556;-70
2023/12/15 10:14:14;;;;;;;14.23;7.00;;;7.60;99.90;;;;;;5100638;27;20454;-69
2023/12/15 10:16:44;;;;;;;11.73;5.80;;;7.80;99.90;;;;;;5092472;28;20446;-69
2023/12/15 10:19:12;;;;;;;12.40;6.30;;;8.10;99.90;;;;;;5087989;28;20566;-70
2023/12/15 10:21:40;;;;;;;13.73;6.77;;;8.20;99.90;;;;;;5086811;28;20581;-71
2023/12/15 10:24:22;;;;;;;11.57;5.83;;;8.50;99.90;;;;;;5086540;28;20445;-70
2023/12/15 10:26:51;;;;;;;12.30;5.47;;;8.60;99.90;;;;;;5087334;28;20442;-68
2023/12/15 10:29:20;;;;;;;12.60;5.87;;;8.70;99.90;;;;;;5087571;28;20530;-69
2023/12/15 10:31:51;;;;;;;13.90;6.00;;;8.60;99.90;;;;;;5098813;27;20923;-69
2023/12/15 10:34:22;;;;;;;17.70;6.90;;;8.50;99.90;;;;;;5106808;27;20463;-70
2023/12/15 10:36:50;;;;;;;11.67;6.17;;;8.50;99.90;;;;;;5086816;28;20888;-71
2023/12/15 10:39:19;;;;;;;12.03;5.30;;;8.60;99.90;;;;;;5087077;28;20443;-69
2023/12/15 10:41:47;;;;;;;13.30;7.00;;;8.70;99.90;;;;;;5087202;28;21044;-69
2023/12/15 10:44:16;;;;;;;12.77;6.03;;;8.70;99.90;;;;;;5088278;28;20495;-72
2023/12/15 10:46:47;;;;;;;12.43;5.87;;;8.60;99.90;;;;;;5091281;28;20438;-72
2023/12/15 10:49:17;;;;;;;13.50;6.10;;;8.70;99.90;;;;;;5086333;28;20464;-70
2023/12/15 10:51:48;;;;;;;12.70;6.30;;;8.80;99.90;;;;;;5087392;28;20437;-72
2023/12/15 10:54:18;;;;;;;12.30;5.27;;;8.80;99.90;;;;;;5087508;28;21005;-72
2023/12/15 10:56:47;;;;;;;12.93;5.60;;;8.90;99.90;;;;;;5090090;28;20899;-71
2023/12/15 10:59:16;;;;;;;13.70;5.00;;;8.60;99.90;;;;;;5088283;28;20442;-71
2023/12/15 11:01:46;;;;;;;24.73;6.57;;;8.60;99.90;;;;;;5092514;28;20486;-72
2023/12/15 11:04:20;;;;;;;11.50;5.30;;;8.60;99.90;;;;;;5089958;28;20911;-70
2023/12/15 11:06:49;;;;;;;11.03;5.00;;;8.70;99.90;;;;;;5092983;28;20533;-71
2023/12/15 11:09:35;;;;;;;11.63;5.43;;;8.60;99.90;;;;;;5095023;28;20449;-70
2023/12/15 11:12:28;;;;;;;12.07;5.30;;;8.80;99.90;;;;;;5100197;28;20456;-71
2023/12/15 11:15:00;;;;;;;12.10;5.03;;;8.90;99.90;;;;;;5096509;28;20551;-71
2023/12/15 11:17:28;;;;;;;14.47;5.33;;;8.90;99.90;;;;;;5099772;28;20441;-70
2023/12/15 11:20:06;;;;;;;11.60;5.10;;;9.00;99.90;;;;;;5093002;28;20435;-71
2023/12/15 11:22:42;;;;;;;14.63;5.33;;;9.00;99.90;;;;;;5089494;28;20456;-71
2023/12/15 11:25:18;;;;;;;10.90;5.13;;;9.10;99.90;;;;;;5094659;28;20452;-69
2023/12/15 11:28:02;;;;;;;13.53;4.60;;;9.10;99.90;;;;;;5093101;28;20489;-71
2023/12/15 11:30:34;;;;;;;13.30;4.20;;;8.90;99.90;;;;;;5094166;28;20543;-70
2023/12/15 11:33:39;;;;;;;9.93;3.90;;;8.70;99.90;;;;;;5089220;28;21067;-72
2023/12/15 11:36:13;;;;;;;11.37;4.50;;;8.50;99.90;;;;;;5089507;28;20504;-68
2023/12/15 11:38:42;;;;;;;10.93;4.13;;;8.30;99.90;;;;;;5097302;28;20438;-72
2023/12/15 11:41:11;;;;;;;9.43;3.73;;;8.10;99.90;;;;;;5099010;28;20848;-72
2023/12/15 11:43:43;;;;;;;9.27;3.10;;;8.10;99.90;;;;;;5088148;28;20560;-70
2023/12/15 11:46:11;;;;;;;10.20;3.47;;;8.00;99.90;;;;;;5097030;28;20456;-71
2023/12/15 11:48:41;;;;;;;11.57;3.83;;;7.90;99.90;;;;;;5093588;28;20530;-69
2023/12/15 11:51:10;;;;;;;9.77;3.63;;;7.80;99.90;;;;;;5092014;28;20449;-71
2023/12/15 11:53:41;;;;;;;8.10;3.00;;;7.80;99.90;;;;;;5095277;28;20435;-71
2023/12/15 11:56:10;;;;;;;10.17;3.57;;;7.80;99.90;;;;;;5092844;28;20940;-71
2023/12/15 11:58:39;;;;;;;10.90;4.37;;;8.00;99.90;;;;;;5094001;28;20437;-70
2023/12/15 12:01:08;;;;;;;10.17;4.03;;;8.00;99.90;;;;;;5093511;28;20564;-72
2023/12/15 12:03:36;;;;;;;11.03;4.00;;;8.00;99.90;;;;;;5099282;28;20875;-71
2023/12/15 12:06:08;;;;;;;8.60;3.60;;;7.90;99.90;;;;;;5090509;28;20553;-70
2023/12/15 12:08:38;;;;;;;9.13;3.33;;;7.80;99.90;;;;;;5092537;28;20445;-69
2023/12/15 12:11:06;;;;;;;9.10;4.03;;;7.90;99.90;;;;;;5090481;28;20553;-70
2023/12/15 12:13:39;;;;;;;8.70;3.20;;;7.90;99.90;;;;;;5093565;28;20425;-70
2023/12/15 12:16:07;;;;;;;9.83;3.63;;;7.90;99.90;;;;;;5089070;28;20450;-69
2023/12/15 12:18:35;;;;;;;8.70;3.13;;;7.90;99.90;;;;;;5098088;28;20494;-69
2023/12/15 12:21:06;;;;;;;10.00;3.80;;;7.90;99.90;;;;;;5096669;28;20503;-69
2023/12/15 12:23:34;;;;;;;7.97;3.10;;;8.10;99.90;;;;;;5097073;28;20448;-71
2023/12/15 12:26:14;;;;;;;8.10;2.80;;;8.10;99.90;;;;;;5098882;28;20457;-69
2023/12/15 12:28:47;;;;;;;9.83;2.93;;;8.20;99.90;;;;;;5088747;28;20447;-69
2023/12/15 12:31:15;;;;;;;9.33;3.20;;;8.10;99.90;;;;;;5086845;28;20511;-68
2023/12/15 12:33:47;;;;;;;8.90;3.17;;;8.10;99.90;;;;;;5086131;28;20441;-71
2023/12/15 12:36:15;;;;;;;8.77;2.53;;;8.00;99.90;;;;;;5085738;28;20462;-72
2023/12/15 12:38:47;;;;;;;11.07;3.40;;;7.90;99.90;;;;;;5086689;28;20537;-70
2023/12/15 12:41:20;;;;;;;7.80;2.53;;;7.90;99.90;;;;;;5086680;28;20486;-71
2023/12/15 12:43:48;;;;;;;7.67;2.53;;;7.90;99.90;;;;;;5088305;28;20442;-70
2023/12/15 12:46:16;;;;;;;9.80;2.43;;;7.80;99.90;;;;;;5086702;28;21116;-71
2023/12/15 12:48:46;;;;;;;7.60;2.13;;;7.80;99.90;;;;;;5087336;28;21214;-69
2023/12/15 12:51:17;;;;;;;9.57;2.30;;;7.80;99.90;;;;;;5087411;28;21078;-69
2023/12/15 12:53:45;;;;;;;7.50;1.77;;;7.70;99.90;;;;;;5086335;28;20961;-70
2023/12/15 12:56:13;;;;;;;7.00;1.70;;;7.70;99.90;;;;;;5086067;28;20465;-70
2023/12/15 12:58:42;;;;;;;9.57;2.03;;;7.70;99.90;;;;;;5091913;28;20452;-70